Terminal Aerodrome Forecast
Issued by NWS

Home | Current Version | Previous Version | Text Only | Print | Product List | Glossary On
Versions: 1 2 3 4 5 6 7 8 9 10 11 12 13 14 15 16 17
000
FTUS44 KOUN 202320
TAFHBR
TAF
KHBR 202320Z 2000/2024 18013KT 5SM -TSRA BR BKN020 OVC030CB
     FM200200 18008KT 4SM BR BKN010
      TEMPO 2004/2008 1/2SM FG OVC004
     FM201000 22013KT P6SM SCT015 BKN100
     FM201700 27010KT P6SM SCT250=

USA.gov is the U.S. government's official web portal to all federal, state and local government web resources and services.